sensor_id;sensor_type;location;lat;lon;timestamp;P1;durP1;ratioP1;P2;durP2;ratioP2
18172;SDS011;9211;48.818;9.312;2023-12-22T00:02:13;7.22;;;1.10;;
18172;SDS011;9211;48.818;9.312;2023-12-22T00:04:40;4.95;;;1.17;;
18172;SDS011;9211;48.818;9.312;2023-12-22T00:07:06;4.75;;;1.10;;
18172;SDS011;9211;48.818;9.312;2023-12-22T00:09:33;4.90;;;1.00;;
18172;SDS011;9211;48.818;9.312;2023-12-22T00:12:00;4.13;;;1.00;;
18172;SDS011;9211;48.818;9.312;2023-12-22T00:14:29;6.05;;;1.13;;
18172;SDS011;9211;48.818;9.312;2023-12-22T00:16:55;3.90;;;1.08;;
18172;SDS011;9211;48.818;9.312;2023-12-22T00:19:22;4.65;;;1.02;;
18172;SDS011;9211;48.818;9.312;2023-12-22T00:21:49;3.80;;;1.00;;
18172;SDS011;9211;48.818;9.312;2023-12-22T00:24:16;3.88;;;0.90;;
18172;SDS011;9211;48.818;9.312;2023-12-22T00:26:43;4.82;;;1.30;;
18172;SDS011;9211;48.818;9.312;2023-12-22T00:29:10;3.95;;;1.10;;
18172;SDS011;9211;48.818;9.312;2023-12-22T00:31:38;6.38;;;1.20;;
18172;SDS011;9211;48.818;9.312;2023-12-22T00:34:05;6.65;;;1.30;;
18172;SDS011;9211;48.818;9.312;2023-12-22T00:36:31;5.93;;;1.40;;
18172;SDS011;9211;48.818;9.312;2023-12-22T00:38:58;8.93;;;1.55;;
18172;SDS011;9211;48.818;9.312;2023-12-22T00:41:25;5.40;;;1.20;;
18172;SDS011;9211;48.818;9.312;2023-12-22T00:43:52;5.65;;;1.23;;
18172;SDS011;9211;48.818;9.312;2023-12-22T00:46:19;6.47;;;1.45;;
18172;SDS011;9211;48.818;9.312;2023-12-22T00:48:47;6.00;;;1.20;;
18172;SDS011;9211;48.818;9.312;2023-12-22T00:51:14;6.30;;;1.40;;
18172;SDS011;9211;48.818;9.312;2023-12-22T00:53:41;4.68;;;0.90;;
18172;SDS011;9211;48.818;9.312;2023-12-22T00:56:08;3.17;;;0.70;;
18172;SDS011;9211;48.818;9.312;2023-12-22T00:58:38;1.52;;;0.55;;
18172;SDS011;9211;48.818;9.312;2023-12-22T01:01:05;1.98;;;0.60;;
18172;SDS011;9211;48.818;9.312;2023-12-22T01:03:31;1.98;;;0.50;;
18172;SDS011;9211;48.818;9.312;2023-12-22T01:06:00;1.17;;;0.55;;
18172;SDS011;9211;48.818;9.312;2023-12-22T01:08:26;1.60;;;0.50;;
18172;SDS011;9211;48.818;9.312;2023-12-22T01:10:53;2.70;;;0.60;;
18172;SDS011;9211;48.818;9.312;2023-12-22T01:13:20;2.08;;;0.60;;
18172;SDS011;9211;48.818;9.312;2023-12-22T01:15:47;2.28;;;0.80;;
18172;SDS011;9211;48.818;9.312;2023-12-22T01:18:14;1.88;;;0.60;;
18172;SDS011;9211;48.818;9.312;2023-12-22T01:20:41;1.48;;;0.70;;
18172;SDS011;9211;48.818;9.312;2023-12-22T01:23:09;2.13;;;0.70;;
18172;SDS011;9211;48.818;9.312;2023-12-22T01:25:36;1.90;;;0.82;;
18172;SDS011;9211;48.818;9.312;2023-12-22T01:28:03;3.17;;;1.08;;
18172;SDS011;9211;48.818;9.312;2023-12-22T01:30:30;3.80;;;0.90;;
18172;SDS011;9211;48.818;9.312;2023-12-22T01:32:56;5.22;;;1.40;;
18172;SDS011;9211;48.818;9.312;2023-12-22T01:35:23;2.83;;;0.93;;
18172;SDS011;9211;48.818;9.312;2023-12-22T01:37:51;4.83;;;1.00;;
18172;SDS011;9211;48.818;9.312;2023-12-22T01:40:19;3.70;;;0.90;;
18172;SDS011;9211;48.818;9.312;2023-12-22T01:42:46;4.00;;;1.00;;
18172;SDS011;9211;48.818;9.312;2023-12-22T01:45:13;5.50;;;1.13;;
18172;SDS011;9211;48.818;9.312;2023-12-22T01:47:40;4.75;;;1.40;;
18172;SDS011;9211;48.818;9.312;2023-12-22T01:50:08;7.15;;;1.50;;
18172;SDS011;9211;48.818;9.312;2023-12-22T01:52:37;7.05;;;1.52;;
18172;SDS011;9211;48.818;9.312;2023-12-22T01:55:05;11.07;;;1.42;;
18172;SDS011;9211;48.818;9.312;2023-12-22T01:57:34;6.05;;;1.40;;
18172;SDS011;9211;48.818;9.312;2023-12-22T02:00:01;6.72;;;1.52;;
18172;SDS011;9211;48.818;9.312;2023-12-22T02:02:36;5.30;;;1.02;;
18172;SDS011;9211;48.818;9.312;2023-12-22T02:05:04;7.63;;;1.23;;
18172;SDS011;9211;48.818;9.312;2023-12-22T02:07:34;5.22;;;1.05;;
18172;SDS011;9211;48.818;9.312;2023-12-22T02:10:01;3.65;;;0.80;;
18172;SDS011;9211;48.818;9.312;2023-12-22T02:12:28;4.40;;;0.90;;
18172;SDS011;9211;48.818;9.312;2023-12-22T02:14:57;5.97;;;1.00;;
18172;SDS011;9211;48.818;9.312;2023-12-22T02:17:25;4.07;;;0.80;;
18172;SDS011;9211;48.818;9.312;2023-12-22T02:19:59;4.45;;;0.90;;
18172;SDS011;9211;48.818;9.312;2023-12-22T02:22:29;3.97;;;1.08;;
18172;SDS011;9211;48.818;9.312;2023-12-22T02:24:57;4.53;;;0.90;;
18172;SDS011;9211;48.818;9.312;2023-12-22T02:27:25;3.58;;;0.80;;
18172;SDS011;9211;48.818;9.312;2023-12-22T02:30:01;4.07;;;0.73;;
18172;SDS011;9211;48.818;9.312;2023-12-22T02:32:34;3.70;;;0.77;;
18172;SDS011;9211;48.818;9.312;2023-12-22T02:35:05;3.88;;;0.70;;
18172;SDS011;9211;48.818;9.312;2023-12-22T02:37:37;2.55;;;0.60;;
18172;SDS011;9211;48.818;9.312;2023-12-22T02:40:07;2.88;;;0.90;;
18172;SDS011;9211;48.818;9.312;2023-12-22T02:42:34;3.08;;;0.80;;
18172;SDS011;9211;48.818;9.312;2023-12-22T02:45:03;3.00;;;0.80;;
18172;SDS011;9211;48.818;9.312;2023-12-22T02:47:30;4.05;;;0.80;;
18172;SDS011;9211;48.818;9.312;2023-12-22T02:49:58;4.78;;;1.00;;
18172;SDS011;9211;48.818;9.312;2023-12-22T02:52:25;4.22;;;0.77;;
18172;SDS011;9211;48.818;9.312;2023-12-22T02:54:53;3.08;;;1.05;;
18172;SDS011;9211;48.818;9.312;2023-12-22T02:57:20;5.10;;;1.08;;
18172;SDS011;9211;48.818;9.312;2023-12-22T02:59:47;5.78;;;1.17;;
18172;SDS011;9211;48.818;9.312;2023-12-22T03:02:14;4.55;;;1.25;;
18172;SDS011;9211;48.818;9.312;2023-12-22T03:04:41;5.75;;;1.00;;
18172;SDS011;9211;48.818;9.312;2023-12-22T03:07:07;5.13;;;1.20;;
18172;SDS011;9211;48.818;9.312;2023-12-22T03:09:34;5.75;;;1.10;;
18172;SDS011;9211;48.818;9.312;2023-12-22T03:12:03;5.13;;;1.20;;
18172;SDS011;9211;48.818;9.312;2023-12-22T03:14:30;5.25;;;1.10;;
18172;SDS011;9211;48.818;9.312;2023-12-22T03:16:58;5.93;;;1.30;;
18172;SDS011;9211;48.818;9.312;2023-12-22T03:19:25;4.65;;;1.30;;
18172;SDS011;9211;48.818;9.312;2023-12-22T03:21:52;6.85;;;1.33;;
18172;SDS011;9211;48.818;9.312;2023-12-22T03:24:19;7.75;;;1.00;;
18172;SDS011;9211;48.818;9.312;2023-12-22T03:26:47;6.23;;;1.17;;
18172;SDS011;9211;48.818;9.312;2023-12-22T03:29:15;4.83;;;1.40;;
18172;SDS011;9211;48.818;9.312;2023-12-22T03:31:43;5.45;;;1.08;;
18172;SDS011;9211;48.818;9.312;2023-12-22T03:34:10;5.70;;;1.20;;
18172;SDS011;9211;48.818;9.312;2023-12-22T03:36:37;6.15;;;1.00;;
18172;SDS011;9211;48.818;9.312;2023-12-22T03:39:04;5.93;;;1.20;;
18172;SDS011;9211;48.818;9.312;2023-12-22T03:41:31;7.27;;;1.10;;
18172;SDS011;9211;48.818;9.312;2023-12-22T03:43:59;6.45;;;1.20;;
18172;SDS011;9211;48.818;9.312;2023-12-22T03:46:27;6.10;;;1.10;;
18172;SDS011;9211;48.818;9.312;2023-12-22T03:48:54;7.47;;;1.20;;
18172;SDS011;9211;48.818;9.312;2023-12-22T03:51:21;5.88;;;1.10;;
18172;SDS011;9211;48.818;9.312;2023-12-22T03:53:47;5.93;;;0.90;;
18172;SDS011;9211;48.818;9.312;2023-12-22T03:56:15;6.88;;;1.17;;
18172;SDS011;9211;48.818;9.312;2023-12-22T03:58:42;6.63;;;1.15;;
18172;SDS011;9211;48.818;9.312;2023-12-22T04:01:08;4.40;;;1.03;;
18172;SDS011;9211;48.818;9.312;2023-12-22T04:03:37;5.80;;;1.40;;
18172;SDS011;9211;48.818;9.312;2023-12-22T04:06:03;6.47;;;1.33;;
18172;SDS011;9211;48.818;9.312;2023-12-22T04:08:30;4.22;;;1.10;;
18172;SDS011;9211;48.818;9.312;2023-12-22T04:10:58;3.92;;;0.90;;
18172;SDS011;9211;48.818;9.312;2023-12-22T04:13:24;6.07;;;1.10;;
18172;SDS011;9211;48.818;9.312;2023-12-22T04:15:51;5.32;;;0.93;;
18172;SDS011;9211;48.818;9.312;2023-12-22T04:18:18;6.60;;;1.20;;
18172;SDS011;9211;48.818;9.312;2023-12-22T04:20:46;5.22;;;0.85;;
18172;SDS011;9211;48.818;9.312;2023-12-22T04:23:15;6.32;;;1.27;;
18172;SDS011;9211;48.818;9.312;2023-12-22T04:25:41;8.32;;;1.15;;
18172;SDS011;9211;48.818;9.312;2023-12-22T04:28:08;7.40;;;1.33;;
18172;SDS011;9211;48.818;9.312;2023-12-22T04:30:35;9.13;;;1.50;;
18172;SDS011;9211;48.818;9.312;2023-12-22T04:33:03;9.48;;;1.88;;
18172;SDS011;9211;48.818;9.312;2023-12-22T04:35:30;7.32;;;1.40;;
18172;SDS011;9211;48.818;9.312;2023-12-22T04:37:58;8.93;;;1.40;;
18172;SDS011;9211;48.818;9.312;2023-12-22T04:40:25;7.35;;;1.50;;
18172;SDS011;9211;48.818;9.312;2023-12-22T04:42:53;6.80;;;1.50;;
18172;SDS011;9211;48.818;9.312;2023-12-22T04:45:20;11.05;;;1.50;;
18172;SDS011;9211;48.818;9.312;2023-12-22T04:47:46;10.02;;;1.75;;
18172;SDS011;9211;48.818;9.312;2023-12-22T04:50:13;9.57;;;1.30;;
18172;SDS011;9211;48.818;9.312;2023-12-22T04:52:40;6.93;;;1.23;;
18172;SDS011;9211;48.818;9.312;2023-12-22T04:55:08;6.85;;;1.40;;
18172;SDS011;9211;48.818;9.312;2023-12-22T04:57:35;6.93;;;1.50;;
18172;SDS011;9211;48.818;9.312;2023-12-22T05:00:02;5.78;;;1.10;;
18172;SDS011;9211;48.818;9.312;2023-12-22T05:02:30;4.82;;;1.02;;
18172;SDS011;9211;48.818;9.312;2023-12-22T05:04:56;7.63;;;1.38;;
18172;SDS011;9211;48.818;9.312;2023-12-22T05:07:23;7.20;;;1.42;;
18172;SDS011;9211;48.818;9.312;2023-12-22T05:09:50;7.90;;;1.40;;
18172;SDS011;9211;48.818;9.312;2023-12-22T05:12:20;7.90;;;1.30;;
18172;SDS011;9211;48.818;9.312;2023-12-22T05:14:47;8.10;;;1.30;;
18172;SDS011;9211;48.818;9.312;2023-12-22T05:17:14;7.25;;;1.40;;
18172;SDS011;9211;48.818;9.312;2023-12-22T05:19:41;7.43;;;1.30;;
18172;SDS011;9211;48.818;9.312;2023-12-22T05:22:08;9.10;;;1.35;;
18172;SDS011;9211;48.818;9.312;2023-12-22T05:24:36;4.78;;;1.30;;
18172;SDS011;9211;48.818;9.312;2023-12-22T05:27:03;12.13;;;1.60;;
18172;SDS011;9211;48.818;9.312;2023-12-22T05:29:32;7.72;;;1.60;;
18172;SDS011;9211;48.818;9.312;2023-12-22T05:31:58;11.95;;;2.10;;
18172;SDS011;9211;48.818;9.312;2023-12-22T05:34:25;7.32;;;1.63;;
18172;SDS011;9211;48.818;9.312;2023-12-22T05:36:52;9.32;;;2.00;;
18172;SDS011;9211;48.818;9.312;2023-12-22T05:39:19;9.40;;;2.00;;
18172;SDS011;9211;48.818;9.312;2023-12-22T05:41:46;9.65;;;1.73;;
18172;SDS011;9211;48.818;9.312;2023-12-22T05:44:13;8.75;;;1.80;;
18172;SDS011;9211;48.818;9.312;2023-12-22T05:46:41;9.93;;;1.90;;
18172;SDS011;9211;48.818;9.312;2023-12-22T05:49:08;10.48;;;1.98;;
18172;SDS011;9211;48.818;9.312;2023-12-22T05:51:38;10.10;;;2.03;;
18172;SDS011;9211;48.818;9.312;2023-12-22T05:54:05;9.68;;;1.90;;
18172;SDS011;9211;48.818;9.312;2023-12-22T05:56:32;13.02;;;2.22;;
18172;SDS011;9211;48.818;9.312;2023-12-22T05:58:59;13.38;;;2.15;;
18172;SDS011;9211;48.818;9.312;2023-12-22T06:01:26;10.95;;;2.30;;
18172;SDS011;9211;48.818;9.312;2023-12-22T06:03:54;11.27;;;2.25;;
18172;SDS011;9211;48.818;9.312;2023-12-22T06:06:21;10.30;;;2.10;;
18172;SDS011;9211;48.818;9.312;2023-12-22T06:08:48;10.35;;;2.10;;
18172;SDS011;9211;48.818;9.312;2023-12-22T06:11:15;11.90;;;2.08;;
18172;SDS011;9211;48.818;9.312;2023-12-22T06:13:41;11.32;;;2.00;;
18172;SDS011;9211;48.818;9.312;2023-12-22T06:16:10;14.20;;;2.15;;
18172;SDS011;9211;48.818;9.312;2023-12-22T06:18:39;11.30;;;1.90;;
18172;SDS011;9211;48.818;9.312;2023-12-22T06:21:07;13.77;;;2.25;;
18172;SDS011;9211;48.818;9.312;2023-12-22T06:23:34;11.65;;;2.00;;
18172;SDS011;9211;48.818;9.312;2023-12-22T06:26:01;11.30;;;2.00;;
18172;SDS011;9211;48.818;9.312;2023-12-22T06:28:33;10.98;;;2.25;;
18172;SDS011;9211;48.818;9.312;2023-12-22T06:31:01;14.57;;;2.42;;
18172;SDS011;9211;48.818;9.312;2023-12-22T06:33:28;11.48;;;2.20;;
18172;SDS011;9211;48.818;9.312;2023-12-22T06:35:55;12.18;;;2.20;;
18172;SDS011;9211;48.818;9.312;2023-12-22T06:38:24;11.25;;;2.63;;
18172;SDS011;9211;48.818;9.312;2023-12-22T06:40:50;13.33;;;2.07;;
18172;SDS011;9211;48.818;9.312;2023-12-22T06:43:17;12.80;;;2.20;;
18172;SDS011;9211;48.818;9.312;2023-12-22T06:45:44;13.68;;;2.03;;
18172;SDS011;9211;48.818;9.312;2023-12-22T06:48:11;14.30;;;2.25;;
18172;SDS011;9211;48.818;9.312;2023-12-22T06:50:38;12.05;;;2.20;;
18172;SDS011;9211;48.818;9.312;2023-12-22T06:53:05;12.00;;;2.25;;
18172;SDS011;9211;48.818;9.312;2023-12-22T06:55:34;11.35;;;2.15;;
18172;SDS011;9211;48.818;9.312;2023-12-22T06:58:00;11.35;;;2.08;;
18172;SDS011;9211;48.818;9.312;2023-12-22T07:00:27;10.05;;;1.80;;
18172;SDS011;9211;48.818;9.312;2023-12-22T07:02:54;10.38;;;1.90;;
18172;SDS011;9211;48.818;9.312;2023-12-22T07:05:34;10.90;;;2.03;;
18172;SDS011;9211;48.818;9.312;2023-12-22T07:08:05;13.20;;;2.35;;
18172;SDS011;9211;48.818;9.312;2023-12-22T07:10:34;8.45;;;1.75;;
18172;SDS011;9211;48.818;9.312;2023-12-22T07:13:00;9.93;;;1.98;;
18172;SDS011;9211;48.818;9.312;2023-12-22T07:15:27;12.55;;;2.22;;
18172;SDS011;9211;48.818;9.312;2023-12-22T07:17:54;8.98;;;2.10;;
18172;SDS011;9211;48.818;9.312;2023-12-22T07:20:21;11.98;;;1.88;;
18172;SDS011;9211;48.818;9.312;2023-12-22T07:22:48;9.13;;;1.80;;
18172;SDS011;9211;48.818;9.312;2023-12-22T07:25:16;9.77;;;1.85;;
18172;SDS011;9211;48.818;9.312;2023-12-22T07:27:45;9.10;;;1.80;;
18172;SDS011;9211;48.818;9.312;2023-12-22T07:30:13;8.70;;;2.00;;
18172;SDS011;9211;48.818;9.312;2023-12-22T07:32:42;11.30;;;1.88;;
18172;SDS011;9211;48.818;9.312;2023-12-22T07:35:10;10.65;;;1.75;;
18172;SDS011;9211;48.818;9.312;2023-12-22T07:37:37;7.82;;;1.70;;
18172;SDS011;9211;48.818;9.312;2023-12-22T07:40:04;8.93;;;1.77;;
18172;SDS011;9211;48.818;9.312;2023-12-22T07:42:32;8.98;;;1.70;;
18172;SDS011;9211;48.818;9.312;2023-12-22T07:45:00;10.23;;;2.10;;
18172;SDS011;9211;48.818;9.312;2023-12-22T07:47:28;10.48;;;2.05;;
18172;SDS011;9211;48.818;9.312;2023-12-22T07:49:55;8.48;;;1.83;;
18172;SDS011;9211;48.818;9.312;2023-12-22T07:52:22;8.65;;;1.70;;
18172;SDS011;9211;48.818;9.312;2023-12-22T07:54:48;8.95;;;1.90;;
18172;SDS011;9211;48.818;9.312;2023-12-22T07:57:16;7.78;;;1.80;;
18172;SDS011;9211;48.818;9.312;2023-12-22T07:59:44;8.05;;;1.88;;
18172;SDS011;9211;48.818;9.312;2023-12-22T08:02:12;7.90;;;1.80;;
18172;SDS011;9211;48.818;9.312;2023-12-22T08:04:39;9.97;;;1.60;;
18172;SDS011;9211;48.818;9.312;2023-12-22T08:07:06;9.63;;;2.45;;
18172;SDS011;9211;48.818;9.312;2023-12-22T08:09:33;9.15;;;1.98;;
18172;SDS011;9211;48.818;9.312;2023-12-22T08:12:00;11.10;;;2.00;;
18172;SDS011;9211;48.818;9.312;2023-12-22T08:14:26;7.38;;;1.58;;
18172;SDS011;9211;48.818;9.312;2023-12-22T08:16:53;8.23;;;1.58;;
18172;SDS011;9211;48.818;9.312;2023-12-22T08:19:21;8.77;;;1.85;;
18172;SDS011;9211;48.818;9.312;2023-12-22T08:21:48;8.82;;;1.80;;
18172;SDS011;9211;48.818;9.312;2023-12-22T08:24:15;10.90;;;1.90;;
18172;SDS011;9211;48.818;9.312;2023-12-22T08:26:43;9.43;;;1.95;;
18172;SDS011;9211;48.818;9.312;2023-12-22T08:29:10;11.95;;;2.15;;
18172;SDS011;9211;48.818;9.312;2023-12-22T08:31:37;15.65;;;3.83;;
18172;SDS011;9211;48.818;9.312;2023-12-22T08:34:04;11.07;;;2.03;;
18172;SDS011;9211;48.818;9.312;2023-12-22T08:36:33;11.18;;;2.08;;
18172;SDS011;9211;48.818;9.312;2023-12-22T08:39:00;9.15;;;2.17;;
18172;SDS011;9211;48.818;9.312;2023-12-22T08:41:27;7.90;;;2.00;;
18172;SDS011;9211;48.818;9.312;2023-12-22T08:43:56;14.90;;;2.90;;
18172;SDS011;9211;48.818;9.312;2023-12-22T08:46:23;9.68;;;2.30;;
18172;SDS011;9211;48.818;9.312;2023-12-22T08:48:51;11.73;;;2.30;;
18172;SDS011;9211;48.818;9.312;2023-12-22T08:51:18;14.30;;;2.57;;
18172;SDS011;9211;48.818;9.312;2023-12-22T08:53:49;13.60;;;2.67;;
18172;SDS011;9211;48.818;9.312;2023-12-22T08:56:17;15.30;;;2.90;;
18172;SDS011;9211;48.818;9.312;2023-12-22T08:58:46;14.02;;;2.60;;
18172;SDS011;9211;48.818;9.312;2023-12-22T09:01:15;15.88;;;3.00;;
18172;SDS011;9211;48.818;9.312;2023-12-22T09:03:42;14.38;;;2.90;;
18172;SDS011;9211;48.818;9.312;2023-12-22T09:06:13;16.13;;;2.63;;
18172;SDS011;9211;48.818;9.312;2023-12-22T09:08:41;18.65;;;2.90;;
18172;SDS011;9211;48.818;9.312;2023-12-22T09:11:09;13.90;;;2.42;;
18172;SDS011;9211;48.818;9.312;2023-12-22T09:13:37;13.75;;;2.70;;
18172;SDS011;9211;48.818;9.312;2023-12-22T09:16:04;15.53;;;2.90;;
18172;SDS011;9211;48.818;9.312;2023-12-22T09:18:31;15.93;;;3.00;;
18172;SDS011;9211;48.818;9.312;2023-12-22T09:20:58;16.23;;;2.63;;
18172;SDS011;9211;48.818;9.312;2023-12-22T09:23:25;15.20;;;2.83;;
18172;SDS011;9211;48.818;9.312;2023-12-22T09:25:52;13.93;;;2.47;;
18172;SDS011;9211;48.818;9.312;2023-12-22T09:28:21;15.35;;;2.72;;
18172;SDS011;9211;48.818;9.312;2023-12-22T09:30:47;19.20;;;3.17;;
18172;SDS011;9211;48.818;9.312;2023-12-22T09:33:15;18.00;;;3.10;;
18172;SDS011;9211;48.818;9.312;2023-12-22T09:35:42;15.38;;;2.95;;
18172;SDS011;9211;48.818;9.312;2023-12-22T09:38:09;18.47;;;2.90;;
18172;SDS011;9211;48.818;9.312;2023-12-22T09:40:37;18.88;;;2.90;;
18172;SDS011;9211;48.818;9.312;2023-12-22T09:43:06;16.60;;;2.95;;
18172;SDS011;9211;48.818;9.312;2023-12-22T09:45:35;18.37;;;2.87;;
18172;SDS011;9211;48.818;9.312;2023-12-22T09:48:13;18.20;;;3.00;;
18172;SDS011;9211;48.818;9.312;2023-12-22T09:50:43;17.33;;;3.10;;
18172;SDS011;9211;48.818;9.312;2023-12-22T09:53:10;16.33;;;2.88;;
18172;SDS011;9211;48.818;9.312;2023-12-22T09:55:41;19.40;;;3.20;;
18172;SDS011;9211;48.818;9.312;2023-12-22T09:58:11;18.13;;;3.17;;
18172;SDS011;9211;48.818;9.312;2023-12-22T10:00:41;20.85;;;3.25;;
18172;SDS011;9211;48.818;9.312;2023-12-22T10:03:10;15.35;;;3.10;;
18172;SDS011;9211;48.818;9.312;2023-12-22T10:05:39;16.75;;;2.80;;
18172;SDS011;9211;48.818;9.312;2023-12-22T10:08:07;15.73;;;2.60;;
18172;SDS011;9211;48.818;9.312;2023-12-22T10:10:37;16.58;;;2.88;;
18172;SDS011;9211;48.818;9.312;2023-12-22T10:13:05;13.80;;;2.50;;
18172;SDS011;9211;48.818;9.312;2023-12-22T10:15:35;15.05;;;3.30;;
18172;SDS011;9211;48.818;9.312;2023-12-22T10:18:06;15.15;;;2.83;;
18172;SDS011;9211;48.818;9.312;2023-12-22T10:20:34;19.30;;;3.47;;
18172;SDS011;9211;48.818;9.312;2023-12-22T10:23:01;16.05;;;2.72;;
18172;SDS011;9211;48.818;9.312;2023-12-22T10:25:28;19.70;;;2.85;;
18172;SDS011;9211;48.818;9.312;2023-12-22T10:27:57;15.38;;;2.70;;
18172;SDS011;9211;48.818;9.312;2023-12-22T10:30:24;14.77;;;2.85;;
18172;SDS011;9211;48.818;9.312;2023-12-22T10:32:52;20.00;;;3.10;;
18172;SDS011;9211;48.818;9.312;2023-12-22T10:35:21;15.27;;;2.55;;
18172;SDS011;9211;48.818;9.312;2023-12-22T10:37:49;15.77;;;2.63;;
18172;SDS011;9211;48.818;9.312;2023-12-22T10:40:17;13.73;;;2.78;;
18172;SDS011;9211;48.818;9.312;2023-12-22T10:42:45;13.25;;;2.50;;
18172;SDS011;9211;48.818;9.312;2023-12-22T10:45:11;17.70;;;2.60;;
18172;SDS011;9211;48.818;9.312;2023-12-22T10:47:38;16.65;;;2.83;;
18172;SDS011;9211;48.818;9.312;2023-12-22T10:50:06;14.98;;;2.80;;
18172;SDS011;9211;48.818;9.312;2023-12-22T10:52:35;15.52;;;2.45;;
18172;SDS011;9211;48.818;9.312;2023-12-22T10:55:02;18.15;;;3.05;;
18172;SDS011;9211;48.818;9.312;2023-12-22T10:57:29;11.73;;;2.53;;
18172;SDS011;9211;48.818;9.312;2023-12-22T11:00:03;16.23;;;2.85;;
18172;SDS011;9211;48.818;9.312;2023-12-22T11:02:32;13.63;;;2.35;;
18172;SDS011;9211;48.818;9.312;2023-12-22T11:05:05;14.43;;;2.67;;
18172;SDS011;9211;48.818;9.312;2023-12-22T11:07:38;13.00;;;2.65;;
18172;SDS011;9211;48.818;9.312;2023-12-22T11:10:11;13.52;;;2.47;;
18172;SDS011;9211;48.818;9.312;2023-12-22T11:12:40;11.57;;;2.40;;
18172;SDS011;9211;48.818;9.312;2023-12-22T11:15:09;9.90;;;2.00;;
18172;SDS011;9211;48.818;9.312;2023-12-22T11:17:37;10.07;;;2.00;;
18172;SDS011;9211;48.818;9.312;2023-12-22T11:20:07;7.88;;;1.63;;
18172;SDS011;9211;48.818;9.312;2023-12-22T11:22:36;9.52;;;1.60;;
18172;SDS011;9211;48.818;9.312;2023-12-22T11:25:05;5.80;;;1.50;;
18172;SDS011;9211;48.818;9.312;2023-12-22T11:27:34;8.30;;;1.75;;
18172;SDS011;9211;48.818;9.312;2023-12-22T11:30:03;6.38;;;1.38;;
18172;SDS011;9211;48.818;9.312;2023-12-22T11:32:34;5.33;;;1.40;;
18172;SDS011;9211;48.818;9.312;2023-12-22T11:35:01;6.45;;;1.40;;
18172;SDS011;9211;48.818;9.312;2023-12-22T11:37:28;5.75;;;1.30;;
18172;SDS011;9211;48.818;9.312;2023-12-22T11:39:58;7.40;;;1.40;;
18172;SDS011;9211;48.818;9.312;2023-12-22T11:42:28;6.80;;;1.38;;
18172;SDS011;9211;48.818;9.312;2023-12-22T11:44:58;6.75;;;1.27;;
18172;SDS011;9211;48.818;9.312;2023-12-22T11:47:25;4.72;;;1.20;;
18172;SDS011;9211;48.818;9.312;2023-12-22T11:49:53;5.17;;;1.27;;
18172;SDS011;9211;48.818;9.312;2023-12-22T11:52:24;4.33;;;1.00;;
18172;SDS011;9211;48.818;9.312;2023-12-22T11:54:54;6.53;;;1.25;;
18172;SDS011;9211;48.818;9.312;2023-12-22T11:57:33;6.35;;;1.30;;
18172;SDS011;9211;48.818;9.312;2023-12-22T12:00:02;5.13;;;1.00;;
18172;SDS011;9211;48.818;9.312;2023-12-22T12:02:40;6.15;;;1.05;;
18172;SDS011;9211;48.818;9.312;2023-12-22T12:05:08;4.60;;;0.90;;
18172;SDS011;9211;48.818;9.312;2023-12-22T12:07:39;5.43;;;1.00;;
18172;SDS011;9211;48.818;9.312;2023-12-22T12:10:07;3.95;;;0.90;;
18172;SDS011;9211;48.818;9.312;2023-12-22T12:12:36;3.20;;;0.90;;
18172;SDS011;9211;48.818;9.312;2023-12-22T12:15:06;7.07;;;1.20;;
18172;SDS011;9211;48.818;9.312;2023-12-22T12:17:37;3.80;;;1.20;;
18172;SDS011;9211;48.818;9.312;2023-12-22T12:20:05;4.65;;;1.20;;
18172;SDS011;9211;48.818;9.312;2023-12-22T12:22:34;4.45;;;0.95;;
18172;SDS011;9211;48.818;9.312;2023-12-22T12:25:03;3.83;;;0.90;;
18172;SDS011;9211;48.818;9.312;2023-12-22T12:27:35;3.58;;;0.95;;
18172;SDS011;9211;48.818;9.312;2023-12-22T12:30:07;3.42;;;0.90;;
18172;SDS011;9211;48.818;9.312;2023-12-22T12:32:38;3.45;;;0.90;;
18172;SDS011;9211;48.818;9.312;2023-12-22T12:35:08;3.27;;;0.80;;
18172;SDS011;9211;48.818;9.312;2023-12-22T12:37:35;2.75;;;0.90;;
18172;SDS011;9211;48.818;9.312;2023-12-22T12:40:03;4.45;;;0.88;;
18172;SDS011;9211;48.818;9.312;2023-12-22T12:42:36;2.37;;;0.80;;
18172;SDS011;9211;48.818;9.312;2023-12-22T12:45:04;2.83;;;0.90;;
18172;SDS011;9211;48.818;9.312;2023-12-22T12:47:32;4.00;;;1.00;;
18172;SDS011;9211;48.818;9.312;2023-12-22T12:49:59;2.50;;;0.70;;
18172;SDS011;9211;48.818;9.312;2023-12-22T12:52:26;2.92;;;0.80;;
18172;SDS011;9211;48.818;9.312;2023-12-22T12:54:53;3.03;;;1.00;;
18172;SDS011;9211;48.818;9.312;2023-12-22T12:57:21;3.33;;;1.20;;
18172;SDS011;9211;48.818;9.312;2023-12-22T12:59:49;5.50;;;1.73;;
18172;SDS011;9211;48.818;9.312;2023-12-22T13:02:16;2.65;;;0.70;;
18172;SDS011;9211;48.818;9.312;2023-12-22T13:04:44;3.57;;;0.80;;
18172;SDS011;9211;48.818;9.312;2023-12-22T13:07:11;2.83;;;0.90;;
18172;SDS011;9211;48.818;9.312;2023-12-22T13:09:39;2.45;;;0.88;;
18172;SDS011;9211;48.818;9.312;2023-12-22T13:12:07;2.80;;;0.80;;
18172;SDS011;9211;48.818;9.312;2023-12-22T13:14:35;3.25;;;0.82;;
18172;SDS011;9211;48.818;9.312;2023-12-22T13:17:03;2.15;;;0.90;;
18172;SDS011;9211;48.818;9.312;2023-12-22T13:19:31;3.22;;;1.05;;
18172;SDS011;9211;48.818;9.312;2023-12-22T13:21:58;2.70;;;0.80;;
18172;SDS011;9211;48.818;9.312;2023-12-22T13:24:26;2.70;;;0.70;;
18172;SDS011;9211;48.818;9.312;2023-12-22T13:26:59;2.28;;;0.80;;
18172;SDS011;9211;48.818;9.312;2023-12-22T13:29:28;2.78;;;1.10;;
18172;SDS011;9211;48.818;9.312;2023-12-22T13:31:55;3.47;;;1.63;;
18172;SDS011;9211;48.818;9.312;2023-12-22T13:34:24;2.25;;;1.15;;
18172;SDS011;9211;48.818;9.312;2023-12-22T13:36:51;2.85;;;1.67;;
18172;SDS011;9211;48.818;9.312;2023-12-22T13:39:19;2.63;;;1.40;;
18172;SDS011;9211;48.818;9.312;2023-12-22T13:41:46;4.63;;;1.80;;
18172;SDS011;9211;48.818;9.312;2023-12-22T13:44:13;5.47;;;1.77;;
18172;SDS011;9211;48.818;9.312;2023-12-22T13:46:40;3.70;;;1.67;;
18172;SDS011;9211;48.818;9.312;2023-12-22T13:49:08;7.43;;;2.83;;
18172;SDS011;9211;48.818;9.312;2023-12-22T13:51:41;1.25;;;0.55;;
18172;SDS011;9211;48.818;9.312;2023-12-22T13:54:08;1.20;;;0.80;;
18172;SDS011;9211;48.818;9.312;2023-12-22T13:56:35;2.17;;;0.70;;
18172;SDS011;9211;48.818;9.312;2023-12-22T13:59:05;1.20;;;0.90;;
18172;SDS011;9211;48.818;9.312;2023-12-22T14:01:32;0.90;;;0.40;;
18172;SDS011;9211;48.818;9.312;2023-12-22T14:04:02;1.98;;;0.65;;
18172;SDS011;9211;48.818;9.312;2023-12-22T14:06:30;2.58;;;0.90;;
18172;SDS011;9211;48.818;9.312;2023-12-22T14:09:00;3.40;;;0.95;;
18172;SDS011;9211;48.818;9.312;2023-12-22T14:11:27;1.20;;;0.52;;
18172;SDS011;9211;48.818;9.312;2023-12-22T14:13:55;1.38;;;0.40;;
18172;SDS011;9211;48.818;9.312;2023-12-22T14:16:22;1.98;;;0.80;;
18172;SDS011;9211;48.818;9.312;2023-12-22T14:18:49;1.05;;;0.45;;
18172;SDS011;9211;48.818;9.312;2023-12-22T14:21:16;1.15;;;0.55;;
18172;SDS011;9211;48.818;9.312;2023-12-22T14:23:43;1.67;;;0.60;;
18172;SDS011;9211;48.818;9.312;2023-12-22T14:26:11;1.50;;;0.60;;
18172;SDS011;9211;48.818;9.312;2023-12-22T14:28:38;0.90;;;0.50;;
18172;SDS011;9211;48.818;9.312;2023-12-22T14:31:05;0.95;;;0.50;;
18172;SDS011;9211;48.818;9.312;2023-12-22T14:33:33;1.90;;;0.60;;
18172;SDS011;9211;48.818;9.312;2023-12-22T14:35:59;1.80;;;0.50;;
18172;SDS011;9211;48.818;9.312;2023-12-22T14:38:26;0.50;;;0.40;;
18172;SDS011;9211;48.818;9.312;2023-12-22T14:40:53;1.10;;;0.50;;
18172;SDS011;9211;48.818;9.312;2023-12-22T14:43:21;2.13;;;0.40;;
18172;SDS011;9211;48.818;9.312;2023-12-22T14:45:48;0.50;;;0.30;;
18172;SDS011;9211;48.818;9.312;2023-12-22T14:48:15;0.80;;;0.30;;
18172;SDS011;9211;48.818;9.312;2023-12-22T14:50:42;0.75;;;0.30;;
18172;SDS011;9211;48.818;9.312;2023-12-22T14:53:09;1.45;;;0.40;;
18172;SDS011;9211;48.818;9.312;2023-12-22T14:55:36;0.57;;;0.43;;
18172;SDS011;9211;48.818;9.312;2023-12-22T14:58:03;1.60;;;0.40;;
18172;SDS011;9211;48.818;9.312;2023-12-22T15:00:33;0.33;;;0.30;;
18172;SDS011;9211;48.818;9.312;2023-12-22T15:03:00;1.80;;;0.30;;